Portada
METAR-TAF:

METAR-TAF

Aeropuertos :

Såtenäs, Suecia

latitud: 58-26N, longitud: 012-42E, altitud: 54 m

Observación

El informe se hizo hace 42 minutos, a las 15:20 UTC
Viento 8 kt del oeste-suroeste
Temperatura 25°C
Humedad 61%
Presión 1022 hPa
Visibilidad 10 km o más

METAR: ESIB 061520Z AUTO 24008KT 9999 FEW140/// 25/17 Q1022

Hora: 18:02 (16:02 UTC)

Pronóstico

El informe se hizo hace 4 horas y 32 minutos, a las 11:30 UTC
Pronóstico válido del 06 a las 12 UTC al 06 a las 15 UTC
Viento 8 kt del suroeste con ráfagas de 18 kt
Visibilidad 10 km o más
sin nubes por debajo de 1500 m y sin presencia de cumulonimbus.

TAF: ESIB 061130Z 0612/0615 22008G18KT CAVOK RMK MIL

Observaciones y pronósticos meteorológicos de más de 4000 aeropuertos (mensajes METAR y TAF).

Los puntos amarillos y rojos representan las estaciones disponibles.

Ponga el ratón en el punto deseado para ver el nombre de la estación.

Haga clic para ver las observaciones y los pronósticos meteorológicos.

Para cambiar el mapa : haga clic en los botones verdes con una cruz de color negro para hacer un zoom, en el botón verde con un guión para alejar o en las flechas verdes para mapas adyacentes.


METAR-TAF: